Terminal Aerodrome Forecast
Issued by NWS

Home | Current Version | Previous Version | Text Only | Print | Product List | Glossary On
Versions: 1 2 3 4 5 6 7 8 9 10 11 12 13
503
FTUS45 KVEF 302320
TAFEED
TAF
KEED 302320Z 0100/0124 19010KT P6SM FEW100
     FM010300 VRB05KT P6SM FEW250
     FM012000 22011KT P6SM SKC=

USA.gov is the U.S. government's official web portal to all federal, state and local government web resources and services.